Oglasa — ITMG — position and weather

sailwx.info

Track history (hours):
 
Tides and Currents Weather Stations Pressure Air Temp Water Temp Dewpoint Dewpoint Depression Visibility Wind Speed Wind Dir Waves Ship Positions

Oglasa

Last reported at 2017-Aug-16 14:31 UTC. Time now 2017-Aug-16 15:12 UTC.
Position N 42°49' E 010°19'.

Length 91 m; draft 3.8 m.

Type: Ship. MMSI: 247046800.

Date/timePositionNaut miles runAvg speedWind from/ knotsBaromVisibWave heightAir tempDewpointWater temp
2017-Aug-16 14:31N 42°49' E 010°19'0 9.3
2017-Aug-16 14:30N 42°49' E 010°20'714.2
2017-Aug-16 14:00N 42°53' E 010°27'4 3.6
2017-Aug-16 12:50N 42°54' E 010°32'516.2
2017-Aug-16 12:30N 42°53' E 010°26'611.3
2017-Aug-16 11:58N 42°49' E 010°19'0 0.6
2017-Aug-16 11:30N 42°49' E 010°20'714.6
2017-Aug-16 11:01N 42°54' E 010°27'5 5.6
2017-Aug-16 10:06N 42°56' E 010°33'1 9.6
2017-Aug-16 10:00N 42°55' E 010°34'815.9
2017-Aug-16 09:31N 42°52' E 010°24'5 9.6
2017-Aug-16 09:00N 42°49' E 010°19'0 1.0
2017-Aug-16 08:30N 42°49' E 010°20'815.1
2017-Aug-16 08:01N 42°54' E 010°27'3 1.3
2017-Aug-16 05:47N 42°54' E 010°31'516.7
2017-Aug-16 05:30N 42°53' E 010°25'611.6
2017-Aug-16 05:00N 42°49' E 010°19'0 1.0
2017-Aug-16 04:29N 42°49' E 010°20'715.0
2017-Aug-16 04:00N 42°53' E 010°27'3 0.3
2017-Aug-15 15:46N 42°54' E 010°31'516.7
2017-Aug-15 15:29N 42°53' E 010°25'4 3.2
2017-Aug-15 14:22N 42°50' E 010°22'515.1
2017-Aug-15 14:00N 42°54' E 010°27'5 4.9
2017-Aug-15 13:00N 42°56' E 010°33'713.2
2017-Aug-15 12:30N 42°53' E 010°25'6 5.6
2017-Aug-15 11:30N 42°49' E 010°20'1114.9
2017-Aug-15 10:44N 42°55' E 010°33'1 1.5
2017-Aug-15 10:01N 42°56' E 010°33'011.9
2017-Aug-15 10:00N 42°56' E 010°33'713.6
2017-Aug-15 09:30N 42°53' E 010°25'6 5.9
2017-Aug-15 08:31N 42°48' E 010°20'014.6
2017-Aug-15 08:30N 42°49' E 010°20'815.1
2017-Aug-15 08:00N 42°54' E 010°28'4 2.3
2017-Aug-15 06:03N 42°56' E 010°33'111.7
2017-Aug-15 06:00N 42°56' E 010°34'815.3
2017-Aug-15 05:31N 42°53' E 010°25'5 5.5
2017-Aug-15 04:31N 42°49' E 010°19'0 6.7
2017-Aug-15 04:29N 42°49' E 010°20'714.8
2017-Aug-15 04:00N 42°53' E 010°27'5 3.5
2017-Aug-15 02:32N 42°56' E 010°33'0 0.0
2017-Aug-15 02:03N 42°56' E 010°33'1 0.1
2017-Aug-14 17:58N 42°56' E 010°34'714.8
2017-Aug-14 17:31N 42°53' E 010°26'6 6.3
2017-Aug-14 16:32N 42°49' E 010°20'010.7
2017-Aug-14 16:30N 42°48' E 010°20'11 6.5
2017-Aug-14 14:50N 42°54' E 010°33'516.4
2017-Aug-14 14:31N 42°53' E 010°26'6 5.6
2017-Aug-14 13:30N 42°49' E 010°20'10 5.6
2017-Aug-14 11:47N 42°54' E 010°32'516.7
2017-Aug-14 11:30N 42°53' E 010°25'6 7.8
2017-Aug-14 10:44N 42°49' E 010°19'0 2.0
2017-Aug-14 10:31N 42°49' E 010°20'815.0
2017-Aug-14 10:00N 42°54' E 010°28'5 4.9
2017-Aug-14 09:04N 42°56' E 010°33'110.7
2017-Aug-14 09:00N 42°56' E 010°34'815.4
2017-Aug-14 08:31N 42°53' E 010°24'5 8.4
2017-Aug-14 07:52N 42°49' E 010°19'0 0.9
2017-Aug-14 07:30N 42°49' E 010°20'714.4
2017-Aug-14 07:00N 42°53' E 010°27'5 5.1
2017-Aug-14 06:01N 42°56' E 010°33'011.7
2017-Aug-14 05:58N 42°56' E 010°34'714.3
2017-Aug-14 05:30N 42°53' E 010°26'612.3
2017-Aug-14 05:00N 42°49' E 010°19'0 0.7
2017-Aug-14 04:30N 42°49' E 010°20'714.6
2017-Aug-14 04:00N 42°53' E 010°27'5 0.5
2017-Aug-13 18:30N 42°56' E 010°33'0 0.7
2017-Aug-13 18:01N 42°56' E 010°33'612.2
2017-Aug-13 17:31N 42°53' E 010°26'612.5
2017-Aug-13 17:00N 42°49' E 010°19'0 0.2
2017-Aug-13 16:30N 42°49' E 010°20'714.5
2017-Aug-13 16:00N 42°53' E 010°27'5 5.4
2017-Aug-13 15:03N 42°56' E 010°33'110.8
2017-Aug-13 15:00N 42°56' E 010°34'715.0
2017-Aug-13 14:31N 42°53' E 010°25'6 7.4
2017-Aug-13 13:45N 42°49' E 010°19'0 0.1
2017-Aug-13 13:31N 42°49' E 010°19'714.4
2017-Aug-13 13:00N 42°54' E 010°27'5 5.0
2017-Aug-13 11:56N 42°55' E 010°34'715.5
2017-Aug-13 11:30N 42°53' E 010°25'611.2
2017-Aug-13 10:59N 42°49' E 010°19'0 0.2
2017-Aug-13 10:30N 42°49' E 010°20'714.5
2017-Aug-13 10:01N 42°53' E 010°27'5 5.5
2017-Aug-13 09:01N 42°56' E 010°33'0 8.2
2017-Aug-13 08:57N 42°56' E 010°34'715.0
2017-Aug-13 08:31N 42°53' E 010°26'611.6
2017-Aug-13 07:59N 42°49' E 010°19'0 0.3
2017-Aug-13 07:30N 42°49' E 010°20'13 8.3
2017-Aug-13 05:59N 42°56' E 010°34'715.2
2017-Aug-13 05:30N 42°53' E 010°25'611.0
2017-Aug-13 05:00N 42°49' E 010°19'0 0.2
2017-Aug-13 04:30N 42°49' E 010°19'714.1
2017-Aug-13 04:00N 42°53' E 010°27'5 0.5
2017-Aug-12 17:58N 42°55' E 010°34'815.8
2017-Aug-12 17:27N 42°52' E 010°24'5 8.8
2017-Aug-12 16:56N 42°49' E 010°19'1 2.0
2017-Aug-12 16:30N 42°49' E 010°21'10 1.3
2017-Aug-12 08:54N 42°54' E 010°32'7 0.2
2017-Aug-10 15:24N 42°52' E 010°23'410.5
2017-Aug-10 15:00N 42°49' E 010°19'0 0.4
2017-Aug-10 14:31N 42°49' E 010°20'814.6
2017-Aug-10 13:58N 42°54' E 010°28'5 5.0
2017-Aug-10 13:02N 42°56' E 010°33'0 7.9
2017-Aug-10 12:59N 42°56' E 010°34'714.3
2017-Aug-10 12:30N 42°53' E 010°25'6 5.9
2017-Aug-10 11:29N 42°49' E 010°20'715.1
2017-Aug-10 11:01N 42°53' E 010°27'5 5.9
2017-Aug-10 10:08N 42°56' E 010°33'2 9.5
2017-Aug-10 09:55N 42°54' E 010°32'2 0.1
2017-Aug-09 15:57N 42°55' E 010°34'715.3
2017-Aug-09 15:31N 42°53' E 010°25'5 4.9
2017-Aug-09 14:28N 42°49' E 010°21'1115.1
2017-Aug-09 13:45N 42°55' E 010°33'0 0.4
2017-Aug-09 12:52N 42°54' E 010°32'2 0.1
2017-Aug-08 16:02N 42°56' E 010°33'1 8.3
2017-Aug-08 15:57N 42°56' E 010°34'715.0
2017-Aug-08 15:30N 42°53' E 010°26'6 6.1
2017-Aug-08 14:29N 42°49' E 010°20'12 8.7
2017-Aug-08 13:04N 42°56' E 010°33'1 9.3
2017-Aug-08 12:59N 42°55' E 010°34'714.9
2017-Aug-08 12:31N 42°53' E 010°25'6 7.6
2017-Aug-08 11:44N 42°49' E 010°19'2 7.1
2017-Aug-08 11:29N 42°50' E 010°21'1014.9
2017-Aug-08 10:47N 42°55' E 010°33'2 2.2
2017-Aug-08 09:53N 42°54' E 010°31'615.6
2017-Aug-08 09:31N 42°52' E 010°24'5 9.5
2017-Aug-08 09:00N 42°49' E 010°19'1 2.6
2017-Aug-08 08:30N 42°49' E 010°21'814.8
2017-Aug-08 07:58N 42°54' E 010°30'3 1.6
2017-Aug-08 06:04N 42°56' E 010°33'1 7.3
2017-Aug-08 06:00N 42°56' E 010°34'714.1
2017-Aug-08 05:31N 42°53' E 010°25'6 7.3
2017-Aug-08 04:41N 42°49' E 010°19'0 1.3
2017-Aug-08 04:30N 42°49' E 010°20'714.5
2017-Aug-08 04:00N 42°53' E 010°27'5 0.5
2017-Aug-07 18:05N 42°56' E 010°33'1 7.9
2017-Aug-07 18:00N 42°56' E 010°34'715.1
2017-Aug-07 17:31N 42°53' E 010°25'5 6.9
2017-Aug-07 16:43N 42°49' E 010°19'0 0.5
2017-Aug-07 16:30N 42°49' E 010°20'714.2
2017-Aug-07 16:00N 42°53' E 010°27'5 5.4
2017-Aug-07 15:01N 42°56' E 010°33'111.9
2017-Aug-07 14:58N 42°56' E 010°34'714.5
2017-Aug-07 14:31N 42°53' E 010°26'612.4
2017-Aug-07 14:00N 42°49' E 010°19'0 1.0
2017-Aug-07 13:30N 42°49' E 010°20'1215.1
2017-Aug-07 12:45N 42°55' E 010°33'1 1.4
2017-Aug-07 12:01N 42°56' E 010°33'012.8
2017-Aug-07 11:59N 42°56' E 010°34'713.6
2017-Aug-07 11:30N 42°53' E 010°26'6 6.8
2017-Aug-07 10:36N 42°49' E 010°19'1 5.4
2017-Aug-07 10:30N 42°49' E 010°20'11 6.3
2017-Aug-07 08:50N 42°54' E 010°32'716.1
2017-Aug-07 08:25N 42°52' E 010°24'5 5.6
2017-Aug-07 07:36N 42°49' E 010°19'1 5.9
2017-Aug-07 07:30N 42°49' E 010°20'1114.9
2017-Aug-07 06:44N 42°55' E 010°33'1 1.1
2017-Aug-07 05:51N 42°54' E 010°32'616.3
2017-Aug-07 05:29N 42°53' E 010°24'5 6.2
2017-Aug-07 04:37N 42°49' E 010°19'1 5.2
2017-Aug-07 04:30N 42°49' E 010°20'714.7
2017-Aug-07 04:00N 42°54' E 010°28'4 1.0
2017-Aug-06 23:50N 42°56' E 010°33'0 0.0
2017-Aug-06 23:29N 42°56' E 010°33'1 0.1
2017-Aug-06 18:00N 42°56' E 010°34'713.5
2017-Aug-06 17:31N 42°53' E 010°25'6 6.0
2017-Aug-06 16:31N 42°49' E 010°20'714.5
2017-Aug-06 16:00N 42°53' E 010°27'5 5.5
2017-Aug-06 15:05N 42°56' E 010°33'1 9.7
2017-Aug-06 15:01N 42°56' E 010°34'  
Track history (hours):
 
Tides and Currents Weather Stations Pressure Air Temp Water Temp Dewpoint Dewpoint Depression Visibility Wind Speed Wind Dir Waves Ship Positions

Oglasa

Last reported at 2017-Aug-16 14:31 UTC. Time now 2017-Aug-16 15:12 UTC.
Position N 42°49' E 010°19'.

Length 91 m; draft 3.8 m.

Type: Ship. MMSI: 247046800.

Date/timePositionNaut miles runAvg speedWind from/ knotsBaromVisibWave heightAir tempDewpointWater temp
2017-Aug-16 14:31N 42°49' E 010°19'0 9.3
2017-Aug-16 14:30N 42°49' E 010°20'714.2
2017-Aug-16 14:00N 42°53' E 010°27'4 3.6
2017-Aug-16 12:50N 42°54' E 010°32'516.2
2017-Aug-16 12:30N 42°53' E 010°26'611.3
2017-Aug-16 11:58N 42°49' E 010°19'0 0.6
2017-Aug-16 11:30N 42°49' E 010°20'714.6
2017-Aug-16 11:01N 42°54' E 010°27'5 5.6
2017-Aug-16 10:06N 42°56' E 010°33'1 9.6
2017-Aug-16 10:00N 42°55' E 010°34'815.9
2017-Aug-16 09:31N 42°52' E 010°24'5 9.6
2017-Aug-16 09:00N 42°49' E 010°19'0 1.0
2017-Aug-16 08:30N 42°49' E 010°20'815.1
2017-Aug-16 08:01N 42°54' E 010°27'3 1.3
2017-Aug-16 05:47N 42°54' E 010°31'516.7
2017-Aug-16 05:30N 42°53' E 010°25'611.6
2017-Aug-16 05:00N 42°49' E 010°19'0 1.0
2017-Aug-16 04:29N 42°49' E 010°20'715.0
2017-Aug-16 04:00N 42°53' E 010°27'3 0.3
2017-Aug-15 15:46N 42°54' E 010°31'516.7
2017-Aug-15 15:29N 42°53' E 010°25'4 3.2
2017-Aug-15 14:22N 42°50' E 010°22'515.1
2017-Aug-15 14:00N 42°54' E 010°27'5 4.9
2017-Aug-15 13:00N 42°56' E 010°33'713.2
2017-Aug-15 12:30N 42°53' E 010°25'6 5.6
2017-Aug-15 11:30N 42°49' E 010°20'1114.9
2017-Aug-15 10:44N 42°55' E 010°33'1 1.5
2017-Aug-15 10:01N 42°56' E 010°33'011.9
2017-Aug-15 10:00N 42°56' E 010°33'713.6
2017-Aug-15 09:30N 42°53' E 010°25'6 5.9
2017-Aug-15 08:31N 42°48' E 010°20'014.6
2017-Aug-15 08:30N 42°49' E 010°20'815.1
2017-Aug-15 08:00N 42°54' E 010°28'4 2.3
2017-Aug-15 06:03N 42°56' E 010°33'111.7
2017-Aug-15 06:00N 42°56' E 010°34'815.3
2017-Aug-15 05:31N 42°53' E 010°25'5 5.5
2017-Aug-15 04:31N 42°49' E 010°19'0 6.7
2017-Aug-15 04:29N 42°49' E 010°20'714.8
2017-Aug-15 04:00N 42°53' E 010°27'5 3.5
2017-Aug-15 02:32N 42°56' E 010°33'0 0.0
2017-Aug-15 02:03N 42°56' E 010°33'1 0.1
2017-Aug-14 17:58N 42°56' E 010°34'714.8
2017-Aug-14 17:31N 42°53' E 010°26'6 6.3
2017-Aug-14 16:32N 42°49' E 010°20'010.7
2017-Aug-14 16:30N 42°48' E 010°20'11 6.5
2017-Aug-14 14:50N 42°54' E 010°33'516.4
2017-Aug-14 14:31N 42°53' E 010°26'6 5.6
2017-Aug-14 13:30N 42°49' E 010°20'10 5.6
2017-Aug-14 11:47N 42°54' E 010°32'516.7
2017-Aug-14 11:30N 42°53' E 010°25'6 7.8
2017-Aug-14 10:44N 42°49' E 010°19'0 2.0
2017-Aug-14 10:31N 42°49' E 010°20'815.0
2017-Aug-14 10:00N 42°54' E 010°28'5 4.9
2017-Aug-14 09:04N 42°56' E 010°33'110.7
2017-Aug-14 09:00N 42°56' E 010°34'815.4
2017-Aug-14 08:31N 42°53' E 010°24'5 8.4
2017-Aug-14 07:52N 42°49' E 010°19'0 0.9
2017-Aug-14 07:30N 42°49' E 010°20'714.4
2017-Aug-14 07:00N 42°53' E 010°27'5 5.1
2017-Aug-14 06:01N 42°56' E 010°33'011.7
2017-Aug-14 05:58N 42°56' E 010°34'714.3
2017-Aug-14 05:30N 42°53' E 010°26'612.3
2017-Aug-14 05:00N 42°49' E 010°19'0 0.7
2017-Aug-14 04:30N 42°49' E 010°20'714.6
2017-Aug-14 04:00N 42°53' E 010°27'5 0.5
2017-Aug-13 18:30N 42°56' E 010°33'0 0.7
2017-Aug-13 18:01N 42°56' E 010°33'612.2
2017-Aug-13 17:31N 42°53' E 010°26'612.5
2017-Aug-13 17:00N 42°49' E 010°19'0 0.2
2017-Aug-13 16:30N 42°49' E 010°20'714.5
2017-Aug-13 16:00N 42°53' E 010°27'5 5.4
2017-Aug-13 15:03N 42°56' E 010°33'110.8
2017-Aug-13 15:00N 42°56' E 010°34'715.0
2017-Aug-13 14:31N 42°53' E 010°25'6 7.4
2017-Aug-13 13:45N 42°49' E 010°19'0 0.1
2017-Aug-13 13:31N 42°49' E 010°19'714.4
2017-Aug-13 13:00N 42°54' E 010°27'5 5.0
2017-Aug-13 11:56N 42°55' E 010°34'715.5
2017-Aug-13 11:30N 42°53' E 010°25'611.2
2017-Aug-13 10:59N 42°49' E 010°19'0 0.2
2017-Aug-13 10:30N 42°49' E 010°20'714.5
2017-Aug-13 10:01N 42°53' E 010°27'5 5.5
2017-Aug-13 09:01N 42°56' E 010°33'0 8.2
2017-Aug-13 08:57N 42°56' E 010°34'715.0
2017-Aug-13 08:31N 42°53' E 010°26'611.6
2017-Aug-13 07:59N 42°49' E 010°19'0 0.3
2017-Aug-13 07:30N 42°49' E 010°20'13 8.3
2017-Aug-13 05:59N 42°56' E 010°34'715.2
2017-Aug-13 05:30N 42°53' E 010°25'611.0
2017-Aug-13 05:00N 42°49' E 010°19'0 0.2
2017-Aug-13 04:30N 42°49' E 010°19'714.1
2017-Aug-13 04:00N 42°53' E 010°27'5 0.5
2017-Aug-12 17:58N 42°55' E 010°34'815.8
2017-Aug-12 17:27N 42°52' E 010°24'5 8.8
2017-Aug-12 16:56N 42°49' E 010°19'1 2.0
2017-Aug-12 16:30N 42°49' E 010°21'10 1.3
2017-Aug-12 08:54N 42°54' E 010°32'7 0.2
2017-Aug-10 15:24N 42°52' E 010°23'410.5
2017-Aug-10 15:00N 42°49' E 010°19'0 0.4
2017-Aug-10 14:31N 42°49' E 010°20'814.6
2017-Aug-10 13:58N 42°54' E 010°28'5 5.0
2017-Aug-10 13:02N 42°56' E 010°33'0 7.9
2017-Aug-10 12:59N 42°56' E 010°34'714.3
2017-Aug-10 12:30N 42°53' E 010°25'6 5.9
2017-Aug-10 11:29N 42°49' E 010°20'715.1
2017-Aug-10 11:01N 42°53' E 010°27'5 5.9
2017-Aug-10 10:08N 42°56' E 010°33'2 9.5
2017-Aug-10 09:55N 42°54' E 010°32'2 0.1
2017-Aug-09 15:57N 42°55' E 010°34'715.3
2017-Aug-09 15:31N 42°53' E 010°25'5 4.9
2017-Aug-09 14:28N 42°49' E 010°21'1115.1
2017-Aug-09 13:45N 42°55' E 010°33'0 0.4
2017-Aug-09 12:52N 42°54' E 010°32'2 0.1
2017-Aug-08 16:02N 42°56' E 010°33'1 8.3
2017-Aug-08 15:57N 42°56' E 010°34'715.0
2017-Aug-08 15:30N 42°53' E 010°26'6 6.1
2017-Aug-08 14:29N 42°49' E 010°20'12 8.7
2017-Aug-08 13:04N 42°56' E 010°33'1 9.3
2017-Aug-08 12:59N 42°55' E 010°34'714.9
2017-Aug-08 12:31N 42°53' E 010°25'6 7.6
2017-Aug-08 11:44N 42°49' E 010°19'2 7.1
2017-Aug-08 11:29N 42°50' E 010°21'1014.9
2017-Aug-08 10:47N 42°55' E 010°33'2 2.2
2017-Aug-08 09:53N 42°54' E 010°31'615.6
2017-Aug-08 09:31N 42°52' E 010°24'5 9.5
2017-Aug-08 09:00N 42°49' E 010°19'1 2.6
2017-Aug-08 08:30N 42°49' E 010°21'814.8
2017-Aug-08 07:58N 42°54' E 010°30'3 1.6
2017-Aug-08 06:04N 42°56' E 010°33'1 7.3
2017-Aug-08 06:00N 42°56' E 010°34'714.1
2017-Aug-08 05:31N 42°53' E 010°25'6 7.3
2017-Aug-08 04:41N 42°49' E 010°19'0 1.3
2017-Aug-08 04:30N 42°49' E 010°20'714.5
2017-Aug-08 04:00N 42°53' E 010°27'5 0.5
2017-Aug-07 18:05N 42°56' E 010°33'1 7.9
2017-Aug-07 18:00N 42°56' E 010°34'715.1
2017-Aug-07 17:31N 42°53' E 010°25'5 6.9
2017-Aug-07 16:43N 42°49' E 010°19'0 0.5
2017-Aug-07 16:30N 42°49' E 010°20'714.2
2017-Aug-07 16:00N 42°53' E 010°27'5 5.4
2017-Aug-07 15:01N 42°56' E 010°33'111.9
2017-Aug-07 14:58N 42°56' E 010°34'714.5
2017-Aug-07 14:31N 42°53' E 010°26'612.4
2017-Aug-07 14:00N 42°49' E 010°19'0 1.0
2017-Aug-07 13:30N 42°49' E 010°20'1215.1
2017-Aug-07 12:45N 42°55' E 010°33'1 1.4
2017-Aug-07 12:01N 42°56' E 010°33'012.8
2017-Aug-07 11:59N 42°56' E 010°34'713.6
2017-Aug-07 11:30N 42°53' E 010°26'6 6.8
2017-Aug-07 10:36N 42°49' E 010°19'1 5.4
2017-Aug-07 10:30N 42°49' E 010°20'11 6.3
2017-Aug-07 08:50N 42°54' E 010°32'716.1
2017-Aug-07 08:25N 42°52' E 010°24'5 5.6
2017-Aug-07 07:36N 42°49' E 010°19'1 5.9
2017-Aug-07 07:30N 42°49' E 010°20'1114.9
2017-Aug-07 06:44N 42°55' E 010°33'1 1.1
2017-Aug-07 05:51N 42°54' E 010°32'616.3
2017-Aug-07 05:29N 42°53' E 010°24'5 6.2
2017-Aug-07 04:37N 42°49' E 010°19'1 5.2
2017-Aug-07 04:30N 42°49' E 010°20'714.7
2017-Aug-07 04:00N 42°54' E 010°28'4 1.0
2017-Aug-06 23:50N 42°56' E 010°33'0 0.0
2017-Aug-06 23:29N 42°56' E 010°33'1 0.1
2017-Aug-06 18:00N 42°56' E 010°34'713.5
2017-Aug-06 17:31N 42°53' E 010°25'6 6.0
2017-Aug-06 16:31N 42°49' E 010°20'714.5
2017-Aug-06 16:00N 42°53' E 010°27'5 5.5
2017-Aug-06 15:05N 42°56' E 010°33'1 9.7
2017-Aug-06 15:01N 42°56' E 010°34'  

Dump ship's entire track history